createdAt,value
2023-02-22T00:00:09.823Z,7.10
2023-02-22T00:03:54.900Z,14.10
2023-02-22T00:07:23.929Z,24.60
2023-02-22T00:10:52.850Z,23.10
2023-02-22T00:14:21.851Z,13.60
2023-02-22T00:17:49.219Z,8.40
2023-02-22T00:21:18.152Z,7.50
2023-02-22T00:24:47.054Z,7.00
2023-02-22T00:28:15.500Z,10.30
2023-02-22T00:31:42.413Z,5.20
2023-02-22T00:35:11.048Z,5.30
2023-02-22T00:38:37.592Z,4.30
2023-02-22T00:42:05.890Z,4.20
2023-02-22T00:45:34.386Z,4.70
2023-02-22T00:49:06.476Z,5.00
2023-02-22T00:52:33.067Z,5.00
2023-02-22T00:56:02.290Z,4.70
2023-02-22T00:59:31.419Z,8.90
2023-02-22T01:03:01.556Z,9.30
2023-02-22T01:06:29.563Z,7.10
2023-02-22T01:09:59.357Z,11.50
2023-02-22T01:13:26.236Z,15.50
2023-02-22T01:16:54.679Z,13.60
2023-02-22T01:20:23.101Z,14.30
2023-02-22T01:23:50.546Z,12.70
2023-02-22T01:27:18.103Z,18.90
2023-02-22T01:30:45.114Z,8.90
2023-02-22T01:34:15.506Z,5.70
2023-02-22T01:37:43.635Z,5.40
2023-02-22T01:41:10.788Z,5.30
2023-02-22T01:44:40.436Z,4.60
2023-02-22T01:48:13.372Z,5.30
2023-02-22T01:51:44.287Z,4.70
2023-02-22T01:55:11.274Z,6.40
2023-02-22T01:58:42.825Z,5.20
2023-02-22T02:02:09.971Z,7.10
2023-02-22T02:05:39.273Z,6.90
2023-02-22T02:09:12.259Z,5.80
2023-02-22T02:12:39.307Z,15.20
2023-02-22T02:16:06.396Z,10.30
2023-02-22T02:19:45.165Z,10.10
2023-02-22T02:23:35.849Z,6.20
2023-02-22T02:27:24.190Z,8.20
2023-02-22T02:31:36.234Z,6.00
2023-02-22T02:35:11.624Z,4.90
2023-02-22T02:38:45.992Z,4.00
2023-02-22T02:42:19.265Z,3.90
2023-02-22T02:45:51.041Z,5.40
2023-02-22T02:49:23.259Z,5.50
2023-02-22T02:52:54.521Z,7.60
2023-02-22T02:56:23.598Z,4.80
2023-02-22T02:59:51.608Z,4.70
2023-02-22T03:03:38.965Z,6.80
2023-02-22T03:07:30.072Z,6.40
2023-02-22T03:11:15.650Z,5.90
2023-02-22T03:14:56.048Z,7.00
2023-02-22T03:18:30.726Z,7.40
2023-02-22T03:22:04.920Z,7.90
2023-02-22T03:25:40.408Z,10.60
2023-02-22T03:29:12.198Z,8.40
2023-02-22T03:32:42.569Z,6.80
2023-02-22T03:36:15.715Z,6.10
2023-02-22T03:39:44.816Z,6.20
2023-02-22T03:43:15.910Z,6.10
2023-02-22T03:46:44.552Z,6.20
2023-02-22T03:50:16.606Z,6.10
2023-02-22T03:53:46.090Z,6.00
2023-02-22T03:57:17.597Z,6.10
2023-02-22T04:00:44.910Z,5.70
2023-02-22T04:04:11.446Z,5.80
2023-02-22T04:11:42.226Z,5.50
2023-02-22T04:15:14.122Z,5.10
2023-02-22T04:18:42.277Z,6.00
2023-02-22T04:22:09.159Z,5.40
2023-02-22T04:25:35.903Z,5.70
2023-02-22T04:29:10.571Z,6.30
2023-02-22T04:32:39.681Z,5.70
2023-02-22T04:36:08.939Z,6.20
2023-02-22T04:39:36.429Z,9.20
2023-02-22T04:43:03.653Z,6.90
2023-02-22T04:46:31.704Z,7.40
2023-02-22T04:50:00.576Z,8.80
2023-02-22T04:53:27.675Z,8.40
2023-02-22T04:56:55.600Z,6.60
2023-02-22T05:00:26.412Z,6.80
2023-02-22T05:03:59.570Z,6.70
2023-02-22T05:07:26.542Z,5.10
2023-02-22T05:10:52.774Z,5.30
2023-02-22T05:14:19.760Z,7.90
2023-02-22T05:17:46.767Z,6.80
2023-02-22T05:21:13.823Z,7.30
2023-02-22T05:24:44.352Z,5.60
2023-02-22T05:28:15.823Z,6.20
2023-02-22T05:31:42.746Z,5.50
2023-02-22T05:35:10.348Z,6.10
2023-02-22T05:38:43.471Z,6.70
2023-02-22T05:42:10.720Z,7.20
2023-02-22T05:45:37.646Z,6.40
2023-02-22T05:49:05.709Z,6.30
2023-02-22T05:52:32.113Z,6.50
2023-02-22T05:55:59.753Z,6.50
2023-02-22T05:59:28.121Z,6.40
2023-02-22T06:03:00.164Z,6.90
2023-02-22T06:06:26.715Z,6.90
2023-02-22T06:09:54.372Z,6.70
2023-02-22T06:13:20.658Z,6.60
2023-02-22T06:16:53.204Z,5.90
2023-02-22T06:20:22.926Z,4.90
2023-02-22T06:23:50.184Z,5.80
2023-02-22T06:27:17.026Z,5.80
2023-02-22T06:30:52.523Z,6.00
2023-02-22T06:34:22.055Z,5.90
2023-02-22T06:37:49.176Z,7.30
2023-02-22T06:41:16.479Z,7.20
2023-02-22T06:44:44.123Z,8.20
2023-02-22T06:48:10.958Z,8.30
2023-02-22T06:51:40.488Z,9.40
2023-02-22T06:55:07.873Z,10.00
2023-02-22T06:58:34.503Z,9.30
2023-02-22T07:02:01.581Z,10.60
2023-02-22T07:05:29.687Z,12.00
2023-02-22T07:08:56.632Z,13.70
2023-02-22T07:12:24.062Z,13.10
2023-02-22T07:15:50.950Z,14.10
2023-02-22T07:19:17.941Z,15.90
2023-02-22T07:22:44.688Z,17.90
2023-02-22T07:26:12.453Z,17.10
2023-02-22T07:29:40.551Z,15.50
2023-02-22T07:33:09.206Z,14.30
2023-02-22T07:36:36.395Z,13.40
2023-02-22T07:40:04.311Z,15.80
2023-02-22T07:43:32.360Z,13.50
2023-02-22T07:46:59.683Z,13.60
2023-02-22T07:50:30.272Z,13.30
2023-02-22T07:53:56.931Z,14.10
2023-02-22T07:57:24.265Z,11.90
2023-02-22T08:00:51.290Z,11.90
2023-02-22T08:04:18.561Z,7.70
2023-02-22T08:07:45.627Z,8.90
2023-02-22T08:11:13.353Z,7.70
2023-02-22T08:14:40.726Z,8.40
2023-02-22T08:18:11.730Z,7.70
2023-02-22T08:21:38.801Z,5.30
2023-02-22T08:25:06.724Z,4.90
2023-02-22T08:28:36.577Z,4.60
2023-02-22T08:32:03.893Z,4.60
2023-02-22T08:35:32.127Z,3.70
2023-02-22T08:38:59.893Z,4.40
2023-02-22T08:42:26.843Z,4.40
2023-02-22T08:45:57.182Z,4.00
2023-02-22T08:49:24.991Z,3.90
2023-02-22T08:52:53.485Z,3.80
2023-02-22T08:56:23.567Z,3.40
2023-02-22T08:59:51.138Z,4.10
2023-02-22T09:03:18.395Z,3.40
2023-02-22T09:06:48.624Z,3.60
2023-02-22T09:10:17.671Z,3.50
2023-02-22T09:13:44.540Z,3.10
2023-02-22T09:17:11.440Z,3.00
2023-02-22T09:20:39.083Z,3.20
2023-02-22T09:24:08.801Z,3.00
2023-02-22T09:27:35.911Z,3.60
2023-02-22T09:31:03.018Z,3.80
2023-02-22T09:34:30.796Z,2.60
2023-02-22T09:38:00.289Z,2.20
2023-02-22T09:41:36.137Z,2.30
2023-02-22T09:45:13.097Z,2.10
2023-02-22T09:48:51.691Z,3.20
2023-02-22T09:52:25.333Z,2.20
2023-02-22T09:59:26.407Z,2.50
2023-02-22T10:06:26.350Z,2.40
2023-02-22T10:09:56.715Z,1.50
2023-02-22T10:13:35.137Z,2.60
2023-02-22T10:17:12.410Z,2.80
2023-02-22T10:20:52.872Z,3.00
2023-02-22T10:24:39.912Z,2.40
2023-02-22T10:28:15.185Z,2.30
2023-02-22T10:31:46.308Z,2.00
2023-02-22T10:35:23.644Z,1.90
2023-02-22T10:38:58.492Z,2.00
2023-02-22T10:42:29.751Z,1.90
2023-02-22T10:46:01.546Z,1.80
2023-02-22T10:49:35.098Z,2.70
2023-02-22T10:53:02.170Z,3.40
2023-02-22T10:56:31.091Z,9.10
2023-02-22T11:00:19.983Z,10.20
2023-02-22T11:03:57.425Z,6.50
2023-02-22T11:07:30.218Z,2.60
2023-02-22T11:10:59.015Z,6.00
2023-02-22T11:14:33.424Z,8.80
2023-02-22T11:18:02.155Z,10.00
2023-02-22T11:21:32.357Z,31.70
2023-02-22T11:25:04.464Z,5.90
2023-02-22T11:28:33.253Z,4.00
2023-02-22T11:32:01.080Z,3.80
2023-02-22T11:35:39.109Z,6.90
2023-02-22T11:39:06.912Z,6.20
2023-02-22T11:42:34.235Z,5.10
2023-02-22T11:46:08.637Z,3.60
2023-02-22T11:49:39.475Z,4.10
2023-02-22T11:53:23.444Z,4.50
2023-02-22T11:56:53.097Z,2.90
2023-02-22T12:00:25.965Z,2.30
2023-02-22T12:04:33.409Z,4.50
2023-02-22T12:08:19.443Z,4.30
2023-02-22T12:12:00.897Z,3.40
2023-02-22T12:15:33.749Z,6.80
2023-02-22T12:19:18.008Z,8.10
2023-02-22T12:22:55.031Z,4.90
2023-02-22T12:26:27.555Z,2.80
2023-02-22T12:30:01.928Z,6.00
2023-02-22T12:33:35.078Z,4.60
2023-02-22T12:37:13.470Z,5.70
2023-02-22T12:40:50.193Z,5.50
2023-02-22T12:44:23.224Z,12.30
2023-02-22T12:51:29.427Z,4.90
2023-02-22T12:55:02.008Z,4.60
2023-02-22T12:58:36.701Z,3.30
2023-02-22T13:02:14.429Z,4.40
2023-02-22T13:05:43.518Z,5.50
2023-02-22T13:09:28.965Z,7.60
2023-02-22T13:13:05.076Z,3.30
2023-02-22T13:16:44.001Z,9.40
2023-02-22T13:20:19.814Z,4.00
2023-02-22T13:23:54.857Z,2.30
2023-02-22T13:27:26.347Z,2.90
2023-02-22T13:31:06.335Z,3.10
2023-02-22T13:34:50.512Z,3.00
2023-02-22T13:39:01.176Z,3.30
2023-02-22T13:42:50.294Z,4.60
2023-02-22T13:46:41.095Z,2.70
2023-02-22T13:50:45.462Z,6.30
2023-02-22T13:54:17.531Z,3.20
2023-02-22T13:57:49.062Z,2.60
2023-02-22T14:01:44.170Z,2.50
2023-02-22T14:05:39.258Z,2.60
2023-02-22T14:09:11.274Z,3.10
2023-02-22T14:12:53.462Z,2.70
2023-02-22T14:16:29.955Z,2.80
2023-02-22T14:20:35.159Z,4.30
2023-02-22T14:24:11.830Z,4.70
2023-02-22T14:27:45.595Z,4.30
2023-02-22T14:31:33.324Z,3.60
2023-02-22T14:35:02.489Z,3.90
2023-02-22T14:38:32.335Z,3.40
2023-02-22T14:42:12.723Z,3.80
2023-02-22T14:45:47.215Z,3.60
2023-02-22T14:49:19.132Z,3.50
2023-02-22T14:52:47.897Z,3.10
2023-02-22T14:56:23.218Z,3.00
2023-02-22T15:00:08.323Z,3.30
2023-02-22T15:03:37.643Z,3.40
2023-02-22T15:07:27.645Z,3.70
2023-02-22T15:10:56.454Z,3.30
2023-02-22T15:14:27.061Z,3.40
2023-02-22T15:17:58.847Z,3.60
2023-02-22T15:21:29.476Z,3.90
2023-02-22T15:25:03.598Z,4.20
2023-02-22T15:28:32.477Z,4.60
2023-02-22T15:31:59.459Z,4.10
2023-02-22T15:35:30.060Z,6.20
2023-02-22T15:38:59.676Z,5.50
2023-02-22T15:42:28.339Z,4.20
2023-02-22T15:45:57.482Z,5.80
2023-02-22T15:49:26.470Z,5.80
2023-02-22T15:52:59.395Z,4.50
2023-02-22T15:56:31.362Z,6.60
2023-02-22T15:59:59.979Z,8.00
2023-02-22T16:03:33.371Z,7.20
2023-02-22T16:07:17.305Z,5.80
2023-02-22T16:14:31.297Z,7.30
2023-02-22T16:18:02.405Z,6.50
2023-02-22T16:21:50.906Z,9.10
2023-02-22T16:25:33.296Z,13.50
2023-02-22T16:29:03.289Z,11.40
2023-02-22T16:32:30.843Z,9.40
2023-02-22T16:35:58.003Z,8.70
2023-02-22T16:39:28.420Z,7.60
2023-02-22T16:42:56.644Z,10.20
2023-02-22T16:46:23.872Z,8.90
2023-02-22T16:49:55.910Z,6.40
2023-02-22T16:53:25.423Z,9.60
2023-02-22T16:56:52.833Z,7.50
2023-02-22T17:00:31.669Z,7.20
2023-02-22T17:03:59.449Z,6.00
2023-02-22T17:07:30.138Z,7.10
2023-02-22T17:11:04.854Z,7.60
2023-02-22T17:14:36.584Z,7.80
2023-02-22T17:18:06.133Z,7.10
2023-02-22T17:21:33.059Z,6.70
2023-02-22T17:24:59.626Z,7.60
2023-02-22T17:28:28.647Z,7.20
2023-02-22T17:31:56.995Z,7.50
2023-02-22T17:35:27.490Z,6.90
2023-02-22T17:38:57.312Z,7.50
2023-02-22T17:42:24.226Z,6.50
2023-02-22T17:45:51.469Z,7.60
2023-02-22T17:49:18.246Z,7.30
2023-02-22T17:52:46.094Z,8.20
2023-02-22T17:56:16.865Z,7.50
2023-02-22T17:59:43.876Z,7.50
2023-02-22T18:03:13.043Z,14.90
2023-02-22T18:06:40.384Z,18.50
2023-02-22T18:10:12.255Z,14.00
2023-02-22T18:13:39.235Z,12.00
2023-02-22T18:17:07.241Z,14.50
2023-02-22T18:20:39.329Z,8.80
2023-02-22T18:24:07.092Z,8.50
2023-02-22T18:27:33.949Z,9.00
2023-02-22T18:31:01.418Z,8.40
2023-02-22T18:34:31.197Z,8.00
2023-02-22T18:37:58.496Z,11.20
2023-02-22T18:41:28.839Z,9.50
2023-02-22T18:45:03.533Z,10.90
2023-02-22T18:48:33.433Z,10.60
2023-02-22T18:52:01.549Z,10.40
2023-02-22T18:55:33.941Z,9.80
2023-02-22T18:59:05.894Z,11.10
2023-02-22T19:02:34.710Z,10.10
2023-02-22T19:06:09.950Z,9.50
2023-02-22T19:09:40.198Z,8.70
2023-02-22T19:13:13.036Z,7.80
2023-02-22T19:16:49.997Z,7.60
2023-02-22T19:20:20.728Z,8.20
2023-02-22T19:23:50.938Z,8.70
2023-02-22T19:27:19.415Z,7.10
2023-02-22T19:30:56.082Z,7.50
2023-02-22T19:34:28.345Z,7.80
2023-02-22T19:38:00.922Z,8.00
2023-02-22T19:41:35.404Z,9.40
2023-02-22T19:45:03.935Z,8.90
2023-02-22T19:48:36.150Z,8.30
2023-02-22T19:52:13.134Z,8.90
2023-02-22T19:55:42.927Z,8.90
2023-02-22T19:59:14.831Z,8.00
2023-02-22T20:02:53.475Z,8.60
2023-02-22T20:06:26.183Z,8.60
2023-02-22T20:09:57.094Z,7.80
2023-02-22T20:13:28.682Z,8.10
2023-02-22T20:17:08.882Z,7.40
2023-02-22T20:20:42.217Z,8.30
2023-02-22T20:24:19.713Z,9.10
2023-02-22T20:28:00.884Z,9.00
2023-02-22T20:31:32.312Z,9.10
2023-02-22T20:35:02.119Z,9.10
2023-02-22T20:38:33.558Z,8.90
2023-02-22T20:42:05.013Z,8.60
2023-02-22T20:45:37.125Z,10.80
2023-02-22T20:49:13.532Z,9.00
2023-02-22T20:52:46.117Z,9.00
2023-02-22T20:59:49.698Z,7.20
2023-02-22T21:03:21.458Z,9.00
2023-02-22T21:06:51.364Z,7.30
2023-02-22T21:10:21.698Z,7.40
2023-02-22T21:13:51.620Z,7.00
2023-02-22T21:17:29.350Z,7.00
2023-02-22T21:20:58.388Z,7.10
2023-02-22T21:24:29.724Z,7.40
2023-02-22T21:28:02.292Z,7.60
2023-02-22T21:31:35.532Z,6.80
2023-02-22T21:35:03.910Z,7.30
2023-02-22T21:38:34.276Z,8.10
2023-02-22T21:42:02.897Z,7.90
2023-02-22T21:45:31.213Z,8.60
2023-02-22T21:49:06.420Z,9.10
2023-02-22T21:52:37.736Z,9.80
2023-02-22T21:56:10.159Z,9.00
2023-02-22T21:59:39.821Z,8.30
2023-02-22T22:03:11.854Z,8.10
2023-02-22T22:06:43.393Z,9.10
2023-02-22T22:10:18.112Z,9.40
2023-02-22T22:13:52.719Z,9.20
2023-02-22T22:17:23.245Z,8.90
2023-02-22T22:20:53.891Z,9.30
2023-02-22T22:24:23.633Z,7.80
2023-02-22T22:27:51.586Z,8.50
2023-02-22T22:31:24.020Z,7.50
2023-02-22T22:34:52.484Z,8.60
2023-02-22T22:38:21.993Z,8.90
2023-02-22T22:41:55.271Z,9.30
2023-02-22T22:45:28.631Z,10.00
2023-02-22T22:48:58.609Z,9.30
2023-02-22T22:52:33.756Z,9.40
2023-02-22T22:56:15.690Z,8.80
2023-02-22T23:03:23.317Z,9.60
2023-02-22T23:06:54.487Z,9.70
2023-02-22T23:10:28.679Z,9.40
2023-02-22T23:14:04.150Z,9.60
2023-02-22T23:17:41.798Z,10.80
2023-02-22T23:21:10.658Z,11.00
2023-02-22T23:24:44.843Z,11.40
2023-02-22T23:28:16.249Z,13.60
2023-02-22T23:31:44.168Z,10.70
2023-02-22T23:35:14.188Z,10.20
2023-02-22T23:38:42.693Z,10.80
2023-02-22T23:42:10.680Z,10.20
2023-02-22T23:45:46.268Z,10.60
2023-02-22T23:49:17.715Z,11.60
2023-02-22T23:52:46.500Z,10.90
2023-02-22T23:56:15.015Z,10.60
2023-02-22T23:59:42.181Z,10.60
